Morro Bay, CA

11:40 PM PDT on August 20, 2014 (GMT -0700)
The North Cloisters | Change Station
CLOSE
Current Station
Personal Weather Station
Location: Morro Bay, CA
Elevation: 10 ft
Nearby Weather Stations

Elev 10 ft 35.39 °N, 120.86 °W | Updated 9 minutes ago

Clear
Clear
59.1 °F
Feels Like 59.1 °F
N
0.0
Wind Variable Wind from West
Gusts 0.0 mph

Today
High -- | Low -- °F
--% Chance of Precip.
Yesterday
High -- | Low -- °F
Precip. -- in
6:26 AM 7:46 PM
Waning Crescent, 16% visible
Pressure 29.93 in
Visibility 10.0 miles
Clouds Clear
Dew Point 55 °F
Humidity 86%
Rainfall 0.00 in
Snow Depth Not available.
UV 0 out of 12
Pollen 7.80 out of 12
Air Quality Not available.
Flu Activity Not available.
METAR KSBP 210556Z AUTO 33003KT 10SM CLR 16/13 A2993 RMK AO2 SLP135 T01610133 10233 20156 50005 $

More Conditions Fewer Conditions

Pressure 29.93 in
Visibility 10.0 miles
Clouds Clear
Dew Point 55 °F
Humidity 86%
Rainfall 0.00 in
Snow Depth Not available.
UV 0 out of 12
Pollen 7.80 out of 12
Air Quality Not available.
Flu Activity Not available.
METAR KSBP 210556Z AUTO 33003KT 10SM CLR 16/13 A2993 RMK AO2 SLP135 T01610133 10233 20156 50005 $

More Conditions Fewer Conditions

10-Day Weather Forecast

Almanac

Astronomy

Aug. 20, 2014 Rise Set
Actual Time 6:26 AM PDT 7:46 PM PDT
Civil Twilight 6:00 AM PDT 8:12 PM PDT
Nautical Twilight 5:28 AM PDT 8:44 PM PDT
Astronomical Twilight 4:55 AM PDT 9:17 PM PDT
Moon 2:14 AM PDT (8/20) 4:31 PM PDT (8/20)
Length of Visible Light 14h 12m
Length of Day
13h 19m
Tomorrow will be 2m 2s shorter.
Waning Crescent, 16% of the Moon is Illuminated
Aug 21
Waning Crescent
Aug 25
New
Sep 2
First Quarter
Sep 8
Full
Sep 15
Last Quarter

Community

WunderPhotos

Upload Photos

1,745,858 photos uploaded!

Nearby

Snow Depth

Station Depth Elevation
Leavitt Lake 1 in 9400 ft
Leavitt Meadows 1 in 7200 ft
Summit Meadow 1 in 9122 ft
Ebbetts Pass 0 in 8700 ft
Blue Lakes 0 in 8000 ft

Earthquake Activity

City Distance Mag. Time & Date
King City, California 63 miles 2.7 10:26 PM PDT
2014-08-15
Kettleman City, California 65 miles 2.9 11:32 PM PDT
2014-08-14
King City, California 64 miles 2.9 8:01 PM PDT
2014-08-14
Mariposa, California 145 miles 2.7 3:31 AM PDT
2014-08-14
Minimum magnitude displayed is 2.5.

Coastal Water Temperatures

Place Temperature
No Stations Reporting

Nearby Weather Stations